Time;durP1;ratioP1;P1;durP2;ratioP2;P2;SDS_P1;SDS_P2;PMS_P1;PMS_P2;Temp;Humidity;BMP_temperature;BMP_pressure;BME280_temperature;BME280_humidity;BME280_pressure;Samples;Min_cycle;Max_cycle;Signal;HPM_P1;HPM_P2
2024/01/14 00:00:12;;;;;;;26.83;13.77;;;3.00;99.90;;;;;;5094708;28;20257;-50
2024/01/14 00:02:38;;;;;;;23.05;11.63;;;3.00;99.90;;;;;;5095418;28;20285;-49
2024/01/14 00:05:07;;;;;;;26.10;12.68;;;3.00;99.90;;;;;;5097037;28;20030;-50
2024/01/14 00:07:33;;;;;;;25.60;12.88;;;3.00;99.90;;;;;;5093397;28;20076;-49
2024/01/14 00:09:59;;;;;;;25.52;12.93;;;3.00;99.90;;;;;;5096113;28;20427;-50
2024/01/14 00:12:25;;;;;;;24.92;12.57;;;3.00;99.90;;;;;;5093588;28;20456;-50
2024/01/14 00:14:51;;;;;;;26.75;13.43;;;3.00;99.90;;;;;;5100955;28;20012;-51
2024/01/14 00:17:17;;;;;;;23.77;12.85;;;3.00;99.90;;;;;;5100023;28;20046;-48
2024/01/14 00:19:43;;;;;;;25.85;13.02;;;2.90;99.90;;;;;;5098955;28;20419;-48
2024/01/14 00:22:08;;;;;;;26.60;13.18;;;3.00;99.90;;;;;;5101380;28;20024;-51
2024/01/14 00:24:34;;;;;;;26.00;12.73;;;2.90;99.90;;;;;;5100085;28;20083;-49
2024/01/14 00:27:00;;;;;;;27.55;13.93;;;2.90;99.90;;;;;;5102364;28;20024;-48
2024/01/14 00:29:26;;;;;;;34.45;14.07;;;3.00;99.90;;;;;;5098786;28;20039;-48
2024/01/14 00:31:51;;;;;;;30.35;14.18;;;3.00;99.90;;;;;;5101820;28;20016;-48
2024/01/14 00:34:17;;;;;;;33.60;14.75;;;2.90;99.90;;;;;;5100048;28;20033;-49
2024/01/14 00:36:42;;;;;;;34.08;14.63;;;3.00;99.90;;;;;;5100725;28;20397;-49
2024/01/14 00:39:08;;;;;;;32.78;13.30;;;3.00;99.90;;;;;;5101006;28;20088;-49
2024/01/14 00:41:34;;;;;;;34.78;14.65;;;3.00;99.90;;;;;;5099452;28;20448;-49
2024/01/14 00:44:00;;;;;;;38.60;15.43;;;3.10;99.90;;;;;;5102846;28;20015;-47
2024/01/14 00:46:26;;;;;;;33.25;15.07;;;3.10;99.90;;;;;;5099316;28;20050;-48
2024/01/14 00:48:52;;;;;;;32.45;15.27;;;3.10;99.90;;;;;;5101578;28;20052;-48
2024/01/14 00:51:17;;;;;;;29.65;13.88;;;3.30;99.90;;;;;;5100029;28;20445;-48
2024/01/14 00:53:43;;;;;;;35.45;14.65;;;3.30;99.90;;;;;;5100581;28;20508;-48
2024/01/14 00:56:09;;;;;;;30.58;13.75;;;3.40;99.90;;;;;;5101009;28;20392;-50
2024/01/14 00:58:34;;;;;;;32.10;14.05;;;3.40;99.90;;;;;;5098924;28;20028;-49
2024/01/14 01:01:00;;;;;;;33.00;13.40;;;3.40;99.90;;;;;;5102266;28;20024;-50
2024/01/14 01:03:25;;;;;;;30.92;13.75;;;3.40;99.90;;;;;;5099078;28;20095;-48
2024/01/14 01:05:54;;;;;;;25.42;11.40;;;3.40;99.90;;;;;;5101482;28;20027;-50
2024/01/14 01:08:19;;;;;;;26.38;12.05;;;3.40;99.90;;;;;;5099917;28;20390;-50
2024/01/14 01:10:45;;;;;;;28.52;11.93;;;3.40;99.90;;;;;;5100374;28;20170;-49
2024/01/14 01:13:10;;;;;;;26.83;12.70;;;3.40;99.90;;;;;;5101070;28;20024;-52
2024/01/14 01:15:36;;;;;;;29.95;12.57;;;3.40;99.90;;;;;;5099501;28;20024;-52
2024/01/14 01:18:02;;;;;;;25.05;11.73;;;3.40;99.90;;;;;;5102441;28;20028;-48
2024/01/14 01:20:27;;;;;;;30.40;13.05;;;3.40;99.90;;;;;;5098886;28;20027;-49
2024/01/14 01:22:53;;;;;;;30.33;11.85;;;3.40;99.90;;;;;;5102029;28;20032;-52
2024/01/14 01:25:19;;;;;;;27.77;11.27;;;3.40;99.90;;;;;;5099196;28;20062;-50
2024/01/14 01:27:44;;;;;;;28.55;12.45;;;3.40;99.90;;;;;;5101072;28;20008;-49
2024/01/14 01:30:10;;;;;;;23.35;11.52;;;3.30;99.90;;;;;;5091921;28;20111;-49
2024/01/14 01:32:36;;;;;;;28.27;12.27;;;3.20;99.90;;;;;;5099534;28;20036;-50
2024/01/14 01:35:01;;;;;;;30.85;13.52;;;3.10;99.90;;;;;;5099837;28;20022;-47
2024/01/14 01:37:27;;;;;;;27.50;11.70;;;3.10;99.90;;;;;;5099061;28;20508;-48
2024/01/14 01:39:52;;;;;;;24.25;9.70;;;3.10;99.90;;;;;;5101450;28;20705;-51
2024/01/14 01:42:18;;;;;;;16.33;8.23;;;3.10;99.90;;;;;;5099015;28;20035;-47
2024/01/14 01:44:44;;;;;;;19.73;7.38;;;3.00;99.90;;;;;;5100991;28;20024;-51
2024/01/14 01:47:11;;;;;;;15.02;5.85;;;3.00;99.90;;;;;;5101623;28;20027;-50
2024/01/14 01:49:37;;;;;;;16.80;5.25;;;2.90;99.90;;;;;;5099077;28;20028;-53
2024/01/14 01:52:05;;;;;;;16.10;4.15;;;2.90;99.90;;;;;;5102631;28;20016;-51
2024/01/14 01:54:33;;;;;;;13.55;4.72;;;2.70;99.90;;;;;;5095970;28;20496;-51
2024/01/14 01:56:59;;;;;;;19.73;3.75;;;2.60;99.90;;;;;;5094579;28;20098;-50
2024/01/14 01:59:26;;;;;;;18.23;3.38;;;2.50;99.90;;;;;;5099257;28;20115;-52
2024/01/14 02:01:51;;;;;;;14.45;3.47;;;2.50;99.90;;;;;;5101904;28;20024;-49
2024/01/14 02:04:18;;;;;;;9.50;2.85;;;2.40;99.90;;;;;;5100931;28;20123;-50
2024/01/14 02:06:44;;;;;;;16.27;2.85;;;2.40;99.90;;;;;;5100596;28;20473;-50
2024/01/14 02:09:10;;;;;;;14.10;2.58;;;2.30;99.90;;;;;;5101359;28;20110;-49
2024/01/14 02:11:36;;;;;;;14.10;2.00;;;2.20;99.90;;;;;;5099422;28;20058;-52
2024/01/14 02:14:05;;;;;;;7.32;2.00;;;2.20;99.90;;;;;;5098945;28;20016;-49
2024/01/14 02:16:31;;;;;;;13.13;2.05;;;2.20;99.90;;;;;;5095378;28;20016;-49
2024/01/14 02:18:57;;;;;;;11.50;2.50;;;2.20;99.90;;;;;;5102559;28;20757;-49
2024/01/14 02:21:39;;;;;;;12.65;2.22;;;2.20;99.90;;;;;;5100234;28;20392;-50
2024/01/14 02:24:26;;;;;;;5.63;1.80;;;2.20;99.90;;;;;;5095731;28;20077;-49
2024/01/14 02:26:52;;;;;;;7.88;1.92;;;2.10;99.90;;;;;;5101907;28;20019;-50
2024/01/14 02:29:19;;;;;;;8.48;3.38;;;2.10;99.90;;;;;;5100368;28;20504;-51
2024/01/14 02:31:44;;;;;;;9.07;1.60;;;2.10;99.90;;;;;;5096381;28;20020;-50
2024/01/14 02:34:11;;;;;;;8.52;1.52;;;2.10;99.90;;;;;;5101930;28;20020;-50
2024/01/14 02:36:36;;;;;;;14.23;1.80;;;2.10;99.90;;;;;;5099803;28;20024;-51
2024/01/14 02:39:02;;;;;;;7.53;1.63;;;2.10;99.90;;;;;;5102253;28;20024;-48
2024/01/14 02:41:29;;;;;;;7.20;2.20;;;2.10;99.90;;;;;;5099552;28;20016;-50
2024/01/14 02:43:54;;;;;;;11.55;1.75;;;2.10;99.90;;;;;;5102436;28;20012;-51
2024/01/14 02:46:20;;;;;;;7.70;1.15;;;2.10;99.90;;;;;;5100869;28;20023;-52
2024/01/14 02:48:46;;;;;;;6.43;1.55;;;2.20;99.90;;;;;;5100857;28;20024;-49
2024/01/14 02:51:11;;;;;;;9.38;1.40;;;2.10;99.90;;;;;;5101732;28;20019;-52
2024/01/14 02:53:37;;;;;;;7.70;2.17;;;2.10;99.90;;;;;;5099736;28;20019;-52
2024/01/14 02:56:04;;;;;;;7.68;1.58;;;2.10;99.90;;;;;;5102724;28;20215;-52
2024/01/14 02:58:29;;;;;;;17.25;3.67;;;2.10;99.90;;;;;;5099502;28;20013;-52
2024/01/14 03:00:55;;;;;;;4.47;1.60;;;2.10;99.90;;;;;;5101800;28;20029;-50
2024/01/14 03:03:21;;;;;;;10.43;1.65;;;2.10;99.90;;;;;;5100951;28;20019;-49
2024/01/14 03:05:47;;;;;;;9.23;2.28;;;2.10;99.90;;;;;;5095876;28;20350;-50
2024/01/14 03:08:13;;;;;;;6.70;2.17;;;2.20;99.90;;;;;;5100461;28;20026;-51
2024/01/14 03:10:38;;;;;;;6.32;1.80;;;2.20;99.90;;;;;;5098162;28;20028;-50
2024/01/14 03:13:04;;;;;;;13.27;1.92;;;2.10;99.90;;;;;;5097082;28;20024;-50
2024/01/14 03:15:31;;;;;;;8.40;2.10;;;2.10;99.90;;;;;;5096305;28;20282;-51
2024/01/14 03:17:56;;;;;;;7.72;1.70;;;2.10;99.90;;;;;;5093415;28;20020;-52
2024/01/14 03:20:22;;;;;;;8.75;2.33;;;2.10;99.90;;;;;;5091967;28;20019;-52
2024/01/14 03:22:48;;;;;;;10.13;1.95;;;2.10;99.90;;;;;;5093525;28;20027;-52
2024/01/14 03:25:14;;;;;;;11.35;2.15;;;2.10;99.90;;;;;;5091334;28;20052;-51
2024/01/14 03:27:39;;;;;;;17.73;2.90;;;2.10;99.90;;;;;;5092538;28;20185;-51
2024/01/14 03:30:06;;;;;;;7.75;2.38;;;2.10;99.90;;;;;;5091499;28;20019;-50
2024/01/14 03:32:31;;;;;;;5.50;1.83;;;2.00;99.90;;;;;;5090959;28;20059;-53
2024/01/14 03:34:57;;;;;;;11.75;2.40;;;2.10;99.90;;;;;;5097129;28;20054;-50
2024/01/14 03:37:23;;;;;;;9.60;2.58;;;2.10;99.90;;;;;;5090966;28;20362;-50
2024/01/14 03:39:49;;;;;;;11.63;2.83;;;2.10;99.90;;;;;;5090326;28;20047;-52
2024/01/14 03:42:15;;;;;;;9.05;2.80;;;2.10;99.90;;;;;;5090064;28;20055;-53
2024/01/14 03:44:41;;;;;;;6.43;3.17;;;2.10;99.90;;;;;;5092157;28;20066;-50
2024/01/14 03:47:07;;;;;;;14.98;3.83;;;2.10;99.90;;;;;;5093045;28;20443;-52
2024/01/14 03:49:33;;;;;;;11.32;4.55;;;2.10;99.90;;;;;;5091817;28;20103;-53
2024/01/14 03:51:59;;;;;;;10.88;3.92;;;2.10;99.90;;;;;;5090612;28;20407;-50
2024/01/14 03:54:24;;;;;;;9.65;4.63;;;2.20;99.90;;;;;;5092020;28;20072;-48
2024/01/14 03:56:50;;;;;;;14.07;5.03;;;2.20;99.90;;;;;;5094436;28;20055;-52
2024/01/14 03:59:15;;;;;;;13.85;4.95;;;2.20;99.90;;;;;;5090079;28;20020;-52
2024/01/14 04:01:43;;;;;;;15.40;5.43;;;2.20;99.90;;;;;;5090402;28;20485;-49
2024/01/14 04:04:09;;;;;;;15.48;6.10;;;2.30;99.90;;;;;;5094982;28;20103;-49
2024/01/14 04:06:35;;;;;;;19.35;6.13;;;2.20;99.90;;;;;;5099566;28;20446;-52
2024/01/14 04:09:01;;;;;;;19.80;6.18;;;2.30;99.90;;;;;;5102829;28;20092;-49
2024/01/14 04:11:27;;;;;;;22.95;6.40;;;2.20;99.90;;;;;;5101351;28;20044;-51
2024/01/14 04:13:53;;;;;;;17.13;5.72;;;2.20;99.90;;;;;;5099512;28;20048;-52
2024/01/14 04:16:19;;;;;;;21.17;6.40;;;2.20;99.90;;;;;;5099238;28;20402;-51
2024/01/14 04:18:44;;;;;;;18.85;6.15;;;2.20;99.90;;;;;;5101631;28;20091;-51
2024/01/14 04:21:23;;;;;;;22.38;6.97;;;2.20;99.90;;;;;;5101399;28;20484;-50
2024/01/14 04:23:50;;;;;;;23.35;6.38;;;2.30;99.90;;;;;;5102066;28;20282;-50
2024/01/14 04:26:22;;;;;;;20.88;7.20;;;2.40;99.90;;;;;;5103864;28;20550;-49
2024/01/14 04:28:51;;;;;;;19.80;7.47;;;2.30;99.90;;;;;;5099014;28;20107;-50
2024/01/14 04:31:17;;;;;;;34.75;8.43;;;2.40;99.90;;;;;;5103278;28;20030;-49
2024/01/14 04:33:44;;;;;;;34.60;9.05;;;2.40;99.90;;;;;;5095109;28;20109;-52
2024/01/14 04:36:09;;;;;;;24.38;8.73;;;2.50;99.90;;;;;;5091151;28;20485;-47
2024/01/14 04:38:36;;;;;;;27.10;8.57;;;2.50;99.90;;;;;;5089818;28;20016;-53
2024/01/14 04:41:01;;;;;;;25.45;7.50;;;2.60;99.90;;;;;;5090362;28;20236;-49
2024/01/14 04:43:28;;;;;;;19.77;5.95;;;2.60;99.90;;;;;;5093828;28;20032;-51
2024/01/14 04:45:53;;;;;;;20.88;6.25;;;2.60;99.90;;;;;;5091446;28;20419;-51
2024/01/14 04:48:21;;;;;;;17.63;5.88;;;2.60;99.90;;;;;;5089587;28;20080;-50
2024/01/14 04:50:47;;;;;;;17.95;5.70;;;2.60;99.90;;;;;;5091083;28;20055;-50
2024/01/14 04:53:15;;;;;;;13.90;4.72;;;2.60;99.90;;;;;;5090655;28;20063;-53
2024/01/14 04:55:41;;;;;;;24.98;5.90;;;2.60;99.90;;;;;;5091416;28;20381;-50
2024/01/14 04:58:06;;;;;;;15.82;5.20;;;2.60;99.90;;;;;;5091730;28;20024;-53
2024/01/14 05:00:32;;;;;;;33.08;7.40;;;2.60;99.90;;;;;;5091572;28;20024;-50
2024/01/14 05:02:57;;;;;;;25.08;7.45;;;2.60;99.90;;;;;;5098529;28;20570;-51
2024/01/14 05:05:23;;;;;;;22.77;7.03;;;2.60;99.90;;;;;;5095784;28;20032;-50
2024/01/14 05:07:49;;;;;;;20.85;7.75;;;2.70;99.90;;;;;;5096303;28;20444;-50
2024/01/14 05:10:17;;;;;;;36.22;9.18;;;2.70;99.90;;;;;;5094085;28;20056;-53
2024/01/14 05:12:42;;;;;;;25.40;7.50;;;2.70;99.90;;;;;;5095452;28;20070;-51
2024/01/14 05:15:09;;;;;;;27.40;8.30;;;2.70;99.90;;;;;;5094823;28;20016;-50
2024/01/14 05:17:34;;;;;;;25.88;8.00;;;2.80;99.90;;;;;;5094297;28;20107;-49
2024/01/14 05:20:01;;;;;;;23.15;7.82;;;2.80;99.90;;;;;;5095775;27;20518;-51
2024/01/14 05:22:26;;;;;;;28.00;7.60;;;2.80;99.90;;;;;;5094343;28;20039;-53
2024/01/14 05:24:52;;;;;;;34.63;8.50;;;2.80;99.90;;;;;;5106475;28;20485;-51
2024/01/14 05:27:18;;;;;;;18.30;7.65;;;2.80;99.90;;;;;;5107584;28;20032;-53
2024/01/14 05:29:44;;;;;;;31.75;8.80;;;2.80;99.90;;;;;;5099451;28;20028;-50
2024/01/14 05:32:16;;;;;;;20.77;7.30;;;2.80;99.90;;;;;;5105263;28;20023;-51
2024/01/14 05:34:44;;;;;;;27.05;7.72;;;2.90;99.90;;;;;;5099788;28;20125;-51
2024/01/14 05:37:10;;;;;;;21.38;7.63;;;2.80;99.90;;;;;;5107726;28;20407;-51
2024/01/14 05:39:36;;;;;;;43.80;9.73;;;2.80;99.90;;;;;;5105217;27;20042;-49
2024/01/14 05:42:01;;;;;;;23.25;6.80;;;2.80;99.90;;;;;;5107855;28;20027;-49
2024/01/14 05:44:27;;;;;;;28.27;7.47;;;2.80;99.90;;;;;;5106885;28;20546;-49
2024/01/14 05:46:54;;;;;;;29.40;7.70;;;2.80;99.90;;;;;;5105789;28;20545;-50
2024/01/14 05:49:20;;;;;;;23.10;7.00;;;2.80;99.90;;;;;;5107365;28;20520;-52
2024/01/14 05:51:46;;;;;;;25.17;7.25;;;2.80;99.90;;;;;;5105912;28;20542;-49
2024/01/14 05:54:12;;;;;;;32.88;8.27;;;2.80;99.90;;;;;;5107714;28;20334;-49
2024/01/14 05:56:37;;;;;;;22.23;6.70;;;2.70;99.90;;;;;;5098740;28;20122;-52
2024/01/14 05:59:03;;;;;;;17.10;6.47;;;2.70;99.90;;;;;;5107850;28;20524;-50
2024/01/14 06:01:29;;;;;;;20.48;6.35;;;2.70;99.90;;;;;;5106801;28;20015;-52
2024/01/14 06:03:55;;;;;;;23.27;5.70;;;2.70;99.90;;;;;;5093690;28;20092;-51
2024/01/14 06:06:21;;;;;;;16.75;6.28;;;2.70;99.90;;;;;;5092201;28;20124;-50
2024/01/14 06:08:46;;;;;;;26.80;7.43;;;2.60;99.90;;;;;;5094147;28;20448;-49
2024/01/14 06:11:13;;;;;;;13.25;6.20;;;2.70;99.90;;;;;;5092307;28;20122;-49
2024/01/14 06:13:40;;;;;;;26.05;5.72;;;2.70;99.90;;;;;;5093616;28;20415;-52
2024/01/14 06:16:05;;;;;;;26.33;7.63;;;2.70;99.90;;;;;;5093375;28;20080;-51
2024/01/14 06:18:31;;;;;;;44.28;8.05;;;2.70;99.90;;;;;;5091265;28;20020;-50
2024/01/14 06:20:59;;;;;;;30.20;7.13;;;2.70;99.90;;;;;;5093756;28;20144;-50
2024/01/14 06:23:25;;;;;;;26.45;7.50;;;2.70;99.90;;;;;;5092342;28;20024;-51
2024/01/14 06:25:51;;;;;;;40.80;8.48;;;2.70;99.90;;;;;;5094074;28;20103;-53
2024/01/14 06:28:17;;;;;;;50.78;11.23;;;2.70;99.90;;;;;;5090972;28;20115;-56
2024/01/14 06:30:43;;;;;;;27.88;7.13;;;2.70;99.90;;;;;;5092955;28;20395;-53
2024/01/14 06:33:09;;;;;;;27.98;7.20;;;2.70;99.90;;;;;;5091632;28;20038;-52
2024/01/14 06:35:35;;;;;;;33.85;7.72;;;2.80;99.90;;;;;;5095289;28;20073;-50
2024/01/14 06:38:00;;;;;;;31.17;8.60;;;2.80;99.90;;;;;;5093610;28;20012;-50
2024/01/14 06:40:26;;;;;;;39.45;8.15;;;2.70;99.90;;;;;;5091747;28;20484;-52
2024/01/14 06:42:52;;;;;;;38.30;8.10;;;2.70;99.90;;;;;;5093895;28;20017;-50
2024/01/14 06:45:18;;;;;;;35.83;7.88;;;2.70;99.90;;;;;;5092280;28;20028;-51
2024/01/14 06:47:44;;;;;;;20.83;5.32;;;2.70;99.90;;;;;;5094232;28;20020;-52
2024/01/14 06:50:10;;;;;;;16.75;5.95;;;2.70;99.90;;;;;;5091719;28;20021;-51
2024/01/14 06:52:37;;;;;;;30.20;7.57;;;2.70;99.90;;;;;;5091957;28;20024;-50
2024/01/14 06:55:04;;;;;;;37.67;7.05;;;2.70;99.90;;;;;;5093155;28;20015;-55
2024/01/14 06:57:31;;;;;;;31.40;5.93;;;2.60;99.90;;;;;;5091809;28;20632;-48
2024/01/14 07:00:00;;;;;;;31.08;6.25;;;2.60;99.90;;;;;;5093231;28;20043;-50
2024/01/14 07:02:26;;;;;;;31.92;7.57;;;2.60;99.90;;;;;;5091896;28;20027;-49
2024/01/14 07:04:52;;;;;;;35.50;9.07;;;2.60;99.90;;;;;;5100362;28;20535;-49
2024/01/14 07:07:17;;;;;;;33.95;7.32;;;2.60;99.90;;;;;;5107949;28;20084;-50
2024/01/14 07:09:43;;;;;;;25.83;6.05;;;2.60;99.90;;;;;;5106847;28;20046;-53
2024/01/14 07:12:09;;;;;;;36.95;7.38;;;2.60;99.90;;;;;;5107509;28;20012;-53
2024/01/14 07:14:34;;;;;;;29.65;8.45;;;2.60;99.90;;;;;;5106931;28;20160;-50
2024/01/14 07:17:00;;;;;;;23.05;6.00;;;2.60;99.90;;;;;;5106518;28;20069;-57
2024/01/14 07:19:25;;;;;;;38.40;6.43;;;2.60;99.90;;;;;;5107730;28;20028;-51
2024/01/14 07:21:51;;;;;;;22.27;6.57;;;2.50;99.90;;;;;;5106852;28;20047;-49
2024/01/14 07:24:17;;;;;;;18.10;5.30;;;2.50;99.90;;;;;;5107133;28;20525;-50
2024/01/14 07:26:42;;;;;;;26.88;6.07;;;2.50;99.90;;;;;;5107466;28;20054;-50
2024/01/14 07:29:08;;;;;;;25.55;6.60;;;2.50;99.90;;;;;;5098713;28;20542;-50
2024/01/14 07:31:34;;;;;;;31.98;7.07;;;2.50;99.90;;;;;;5088552;28;20028;-51
2024/01/14 07:34:01;;;;;;;35.30;8.63;;;2.50;99.90;;;;;;5089442;28;20019;-53
2024/01/14 07:36:26;;;;;;;28.67;5.60;;;2.50;99.90;;;;;;5087312;28;20012;-50
2024/01/14 07:38:53;;;;;;;32.05;6.45;;;2.50;99.90;;;;;;5090906;28;20531;-50
2024/01/14 07:41:19;;;;;;;31.73;6.50;;;2.50;99.90;;;;;;5090520;28;20020;-50
2024/01/14 07:43:44;;;;;;;29.48;6.22;;;2.50;99.90;;;;;;5091043;28;20532;-51
2024/01/14 07:46:11;;;;;;;36.22;7.38;;;2.60;99.90;;;;;;5089054;28;20107;-49
2024/01/14 07:48:36;;;;;;;38.42;8.63;;;2.60;99.90;;;;;;5089215;28;20519;-50
2024/01/14 07:51:03;;;;;;;25.05;7.25;;;2.60;99.90;;;;;;5090495;28;20107;-53
2024/01/14 07:53:29;;;;;;;29.17;6.90;;;2.60;99.90;;;;;;5089306;28;20030;-50
2024/01/14 07:55:55;;;;;;;42.55;8.75;;;2.60;99.90;;;;;;5090877;28;20054;-50
2024/01/14 07:58:20;;;;;;;18.13;6.25;;;2.60;99.90;;;;;;5092887;28;20027;-54
2024/01/14 08:00:46;;;;;;;27.20;7.68;;;2.60;99.90;;;;;;5090460;28;20028;-53
2024/01/14 08:03:12;;;;;;;29.80;8.15;;;2.60;99.90;;;;;;5088443;28;20385;-50
2024/01/14 08:05:40;;;;;;;36.78;8.32;;;2.60;99.90;;;;;;5089950;28;20115;-52
2024/01/14 08:08:06;;;;;;;47.50;8.88;;;2.70;99.90;;;;;;5089814;28;20068;-51
2024/01/14 08:10:32;;;;;;;27.10;7.72;;;2.70;99.90;;;;;;5089162;28;20036;-54
2024/01/14 08:12:58;;;;;;;35.58;8.40;;;2.70;99.90;;;;;;5089566;28;20136;-52
2024/01/14 08:15:24;;;;;;;24.77;7.97;;;2.60;99.90;;;;;;5090111;28;20485;-52
2024/01/14 08:17:51;;;;;;;32.38;8.07;;;2.60;99.90;;;;;;5090897;28;20031;-50
2024/01/14 08:20:17;;;;;;;37.83;8.20;;;2.60;99.90;;;;;;5102188;28;20027;-50
2024/01/14 08:22:42;;;;;;;34.67;7.05;;;2.60;99.90;;;;;;5099037;28;20540;-50
2024/01/14 08:25:11;;;;;;;25.92;6.07;;;2.60;99.90;;;;;;5088251;28;20024;-52
2024/01/14 08:27:40;;;;;;;33.75;6.65;;;2.60;99.90;;;;;;5088259;28;20121;-49
2024/01/14 08:30:06;;;;;;;27.05;6.30;;;2.70;99.90;;;;;;5088175;28;20117;-48
2024/01/14 08:32:32;;;;;;;25.60;6.38;;;2.60;99.90;;;;;;5088313;28;20024;-50
2024/01/14 08:35:00;;;;;;;41.10;7.68;;;2.70;99.90;;;;;;5090314;28;20233;-49
2024/01/14 08:37:29;;;;;;;27.40;7.43;;;2.70;99.90;;;;;;5092462;28;20031;-50
2024/01/14 08:39:55;;;;;;;28.95;6.28;;;2.70;99.90;;;;;;5091863;28;20519;-51
2024/01/14 08:42:20;;;;;;;25.95;6.28;;;2.70;99.90;;;;;;5092444;28;20024;-53
2024/01/14 08:44:47;;;;;;;30.40;5.68;;;2.70;99.90;;;;;;5092510;28;20021;-50
2024/01/14 08:47:13;;;;;;;37.63;6.72;;;2.70;99.90;;;;;;5092079;28;20098;-52
2024/01/14 08:49:40;;;;;;;35.60;6.15;;;2.80;99.90;;;;;;5090433;28;20115;-51
2024/01/14 08:52:07;;;;;;;42.78;6.85;;;2.80;99.90;;;;;;5092377;28;20551;-52
2024/01/14 08:54:36;;;;;;;36.03;6.88;;;2.80;99.90;;;;;;5092511;28;20024;-51
2024/01/14 08:57:01;;;;;;;22.55;5.22;;;2.80;99.90;;;;;;5084300;28;20020;-50
2024/01/14 08:59:27;;;;;;;29.92;6.03;;;2.80;99.90;;;;;;5090668;28;20034;-50
2024/01/14 09:01:53;;;;;;;26.95;5.50;;;2.90;99.90;;;;;;5092206;28;20058;-52
2024/01/14 09:04:19;;;;;;;27.67;5.88;;;2.90;99.90;;;;;;5092290;28;20055;-51
2024/01/14 09:06:45;;;;;;;39.22;6.57;;;3.00;99.90;;;;;;5091693;28;20081;-52
2024/01/14 09:09:13;;;;;;;26.08;6.68;;;2.90;99.90;;;;;;5091353;28;20028;-50
2024/01/14 09:11:39;;;;;;;34.78;5.57;;;2.90;99.90;;;;;;5090783;28;20059;-50
2024/01/14 09:14:05;;;;;;;30.98;5.55;;;3.00;99.90;;;;;;5091958;28;20055;-50
2024/01/14 09:16:31;;;;;;;33.67;6.55;;;3.00;99.90;;;;;;5092364;28;20515;-52
2024/01/14 09:18:56;;;;;;;18.15;4.78;;;3.00;99.90;;;;;;5092763;28;20055;-51
2024/01/14 09:21:23;;;;;;;25.58;5.90;;;3.10;99.90;;;;;;5092411;28;20481;-49
2024/01/14 09:23:49;;;;;;;30.30;5.95;;;3.20;99.90;;;;;;5092766;28;20025;-54
2024/01/14 09:26:14;;;;;;;28.65;5.63;;;3.20;99.90;;;;;;5089493;28;20286;-52
2024/01/14 09:28:40;;;;;;;25.10;5.55;;;3.20;99.90;;;;;;5092567;28;20071;-50
2024/01/14 09:31:06;;;;;;;22.35;4.78;;;3.20;99.90;;;;;;5091812;28;20028;-52
2024/01/14 09:33:32;;;;;;;19.05;4.28;;;3.30;99.90;;;;;;5098242;28;20500;-54
2024/01/14 09:36:11;;;;;;;27.25;5.40;;;3.30;99.90;;;;;;5096188;28;20008;-51
2024/01/14 09:38:37;;;;;;;20.13;5.45;;;3.20;99.90;;;;;;5095350;28;20420;-50
2024/01/14 09:41:29;;;;;;;28.08;5.45;;;3.20;99.90;;;;;;5099225;28;20020;-50
2024/01/14 09:43:56;;;;;;;30.30;5.45;;;3.20;99.90;;;;;;5094309;28;20039;-50
2024/01/14 09:46:22;;;;;;;24.60;6.32;;;3.10;99.90;;;;;;5091479;28;20024;-50
2024/01/14 09:48:48;;;;;;;12.07;4.10;;;3.20;99.90;;;;;;5092852;28;20092;-51
2024/01/14 09:51:19;;;;;;;28.88;5.10;;;3.30;99.90;;;;;;5090660;28;20503;-49
2024/01/14 09:53:46;;;;;;;36.03;6.20;;;3.40;99.90;;;;;;5092690;28;20020;-51
2024/01/14 09:56:13;;;;;;;18.08;4.60;;;3.50;99.90;;;;;;5092200;28;20111;-49
2024/01/14 09:58:41;;;;;;;13.30;3.80;;;3.50;99.90;;;;;;5092902;28;20031;-52
2024/01/14 10:01:09;;;;;;;25.20;6.95;;;3.60;99.90;;;;;;5083463;28;20028;-51
2024/01/14 10:03:34;;;;;;;22.30;4.95;;;3.60;99.90;;;;;;5092217;28;20035;-50
2024/01/14 10:06:01;;;;;;;26.35;4.88;;;3.60;99.90;;;;;;5093242;28;20020;-52
2024/01/14 10:08:27;;;;;;;18.05;5.00;;;3.60;99.90;;;;;;5091177;28;20023;-50
2024/01/14 10:10:53;;;;;;;16.33;4.85;;;3.50;99.90;;;;;;5093182;28;20039;-51
2024/01/14 10:13:22;;;;;;;23.35;5.95;;;3.60;99.90;;;;;;5096971;28;20012;-53
2024/01/14 10:15:48;;;;;;;18.65;5.32;;;3.60;99.90;;;;;;5091675;28;20034;-50
2024/01/14 10:18:15;;;;;;;29.45;5.63;;;3.60;99.90;;;;;;5091933;28;20039;-52
2024/01/14 10:20:41;;;;;;;36.05;5.68;;;3.50;99.90;;;;;;5091980;28;20481;-51
2024/01/14 10:23:06;;;;;;;20.52;5.03;;;3.50;99.90;;;;;;5090554;28;20032;-50
2024/01/14 10:25:32;;;;;;;23.20;5.10;;;3.40;99.90;;;;;;5090501;28;20060;-52
2024/01/14 10:28:03;;;;;;;22.63;6.60;;;3.40;99.90;;;;;;5093272;28;20028;-49
2024/01/14 10:30:29;;;;;;;26.00;5.85;;;3.40;99.90;;;;;;5091756;28;20039;-48
2024/01/14 10:32:54;;;;;;;20.95;5.88;;;3.30;99.90;;;;;;5092617;28;20031;-52
2024/01/14 10:35:20;;;;;;;18.25;5.88;;;3.40;99.90;;;;;;5096273;28;20434;-55
2024/01/14 10:37:45;;;;;;;22.52;7.32;;;3.40;99.90;;;;;;5093087;28;20032;-55
2024/01/14 10:40:12;;;;;;;24.45;7.45;;;3.40;99.90;;;;;;5091095;28;20028;-52
2024/01/14 10:42:38;;;;;;;31.55;8.63;;;3.30;99.90;;;;;;5093695;28;20036;-49
2024/01/14 10:45:08;;;;;;;38.42;10.05;;;3.40;99.90;;;;;;5093156;28;20477;-49
2024/01/14 10:47:34;;;;;;;41.70;11.27;;;3.40;99.90;;;;;;5090822;28;20439;-51
2024/01/14 10:50:00;;;;;;;34.55;10.38;;;3.40;99.90;;;;;;5093485;28;20046;-50
2024/01/14 10:52:29;;;;;;;37.67;9.63;;;3.40;99.90;;;;;;5092221;28;20078;-51
2024/01/14 10:55:01;;;;;;;31.00;9.65;;;3.40;99.90;;;;;;5093747;28;20024;-54
2024/01/14 10:57:34;;;;;;;24.05;8.48;;;3.40;99.90;;;;;;5089875;28;20484;-50
2024/01/14 11:00:08;;;;;;;33.35;8.05;;;3.50;99.90;;;;;;5093281;28;20438;-50
2024/01/14 11:02:35;;;;;;;34.78;8.93;;;3.40;99.90;;;;;;5091145;28;20039;-51
2024/01/14 11:05:08;;;;;;;25.85;7.63;;;3.40;99.90;;;;;;5083314;28;20081;-51
2024/01/14 11:07:35;;;;;;;25.75;7.28;;;3.50;99.90;;;;;;5092184;28;20020;-51
2024/01/14 11:10:02;;;;;;;31.30;7.38;;;3.50;99.90;;;;;;5090556;28;20024;-50
2024/01/14 11:12:31;;;;;;;25.92;7.85;;;3.60;99.90;;;;;;5090481;28;20480;-53
2024/01/14 11:15:03;;;;;;;22.20;7.18;;;3.50;99.90;;;;;;5092642;28;20023;-49
2024/01/14 11:17:54;;;;;;;22.35;7.50;;;3.60;99.90;;;;;;5092375;28;20012;-49
2024/01/14 11:20:24;;;;;;;24.98;7.85;;;3.50;99.90;;;;;;5092010;28;20042;-52
2024/01/14 11:22:51;;;;;;;32.97;11.35;;;3.50;99.90;;;;;;5094131;28;20473;-50
2024/01/14 11:25:22;;;;;;;35.20;12.30;;;3.50;99.90;;;;;;5097251;28;20115;-50
2024/01/14 11:27:48;;;;;;;28.70;10.95;;;3.40;99.90;;;;;;5101754;28;20427;-51
2024/01/14 11:30:18;;;;;;;36.15;11.07;;;3.40;99.90;;;;;;5091159;28;20032;-51
2024/01/14 11:32:44;;;;;;;29.95;10.80;;;3.40;99.90;;;;;;5087489;28;20036;-51
2024/01/14 11:35:11;;;;;;;30.20;10.20;;;3.40;99.90;;;;;;5092622;28;20439;-53
2024/01/14 11:37:37;;;;;;;21.10;9.52;;;3.40;99.90;;;;;;5095871;28;20023;-52
2024/01/14 11:40:08;;;;;;;26.33;9.63;;;3.30;99.90;;;;;;5091865;28;20114;-51
2024/01/14 11:42:49;;;;;;;28.20;9.70;;;3.40;99.90;;;;;;5085202;28;20031;-50
2024/01/14 11:45:24;;;;;;;27.05;10.55;;;3.30;99.90;;;;;;5088470;28;20055;-51
2024/01/14 11:47:54;;;;;;;25.42;9.60;;;3.30;99.90;;;;;;5088031;28;20536;-50
2024/01/14 11:50:20;;;;;;;26.65;9.50;;;3.30;99.90;;;;;;5088969;28;20035;-50
2024/01/14 11:52:47;;;;;;;29.40;9.45;;;3.30;99.90;;;;;;5093170;28;20045;-50
2024/01/14 11:55:16;;;;;;;28.30;9.57;;;3.30;99.90;;;;;;5092282;28;20016;-50
2024/01/14 11:57:42;;;;;;;31.10;10.02;;;3.20;99.90;;;;;;5093034;28;20020;-52
2024/01/14 12:00:08;;;;;;;36.33;11.63;;;3.20;99.90;;;;;;5093070;28;20537;-51
2024/01/14 12:02:34;;;;;;;30.70;11.23;;;3.20;99.90;;;;;;5090245;28;20028;-53
2024/01/14 12:05:19;;;;;;;27.52;11.65;;;3.20;99.90;;;;;;5089924;28;20030;-52
2024/01/14 12:07:45;;;;;;;31.73;13.15;;;3.30;99.90;;;;;;5091154;28;20020;-53
2024/01/14 12:10:15;;;;;;;35.28;12.95;;;3.30;99.90;;;;;;5093408;28;20028;-52
2024/01/14 12:12:42;;;;;;;39.75;13.68;;;3.40;99.90;;;;;;5098289;28;20020;-51
2024/01/14 12:15:13;;;;;;;30.73;12.70;;;3.50;99.90;;;;;;5093970;28;20031;-52
2024/01/14 12:17:39;;;;;;;33.95;13.65;;;3.50;99.90;;;;;;5093104;28;20028;-49
2024/01/14 12:20:05;;;;;;;39.33;13.82;;;3.50;99.90;;;;;;5090899;28;20031;-50
2024/01/14 12:22:31;;;;;;;32.30;13.07;;;3.50;99.90;;;;;;5092431;28;20043;-52
2024/01/14 12:24:57;;;;;;;25.90;12.98;;;3.50;99.90;;;;;;5093103;28;20024;-49
2024/01/14 12:27:23;;;;;;;31.60;13.40;;;3.50;99.90;;;;;;5092791;28;20020;-52
2024/01/14 12:29:49;;;;;;;34.08;13.18;;;3.40;99.90;;;;;;5092312;28;20039;-52
2024/01/14 12:32:16;;;;;;;29.42;12.75;;;3.40;99.90;;;;;;5092439;28;20105;-49
2024/01/14 12:34:41;;;;;;;27.63;12.35;;;3.40;99.90;;;;;;5092479;28;20384;-50
2024/01/14 12:37:07;;;;;;;25.10;11.57;;;3.30;99.90;;;;;;5092520;28;20474;-52
2024/01/14 12:39:34;;;;;;;22.13;11.68;;;3.20;99.90;;;;;;5092186;28;20020;-52
2024/01/14 12:42:00;;;;;;;15.00;8.98;;;3.20;99.90;;;;;;5092448;28;20027;-50